Anita, Pennsylvania
Current Conditions -  °F | °C
As of 4:53 PM on Saturday 25 Oct 2014 (Local Time) from KDUJ Reporting Station
Few Clouds Few Clouds  
Wind Chill: 17°   Ceiling: Unl
Heat Index: 17°   Visibility: 10mi
Dew Point:   Wind: 18mph
Humidity: 60%   Direction: 240°WSW
Pressure: 29.71"   Gusts: 28mph
Location:  41°N, 78.96°W
Report Text: KDUJ 252053Z AUTO 24016G24KT 10SM FEW040 17/09 A2971 RMK AO2 SLP059 T01670089 58021 $
Loading
Personal Weather Stations






























Interactive Weather Map
Tropical Storm Tracking
New forecast layout! Learn more

10-Day Weather Forecast

Advertisements
Track Severe Weather on mobile